Time;durP1;ratioP1;P1;durP2;ratioP2;P2;SDS_P1;SDS_P2;PMS_P1;PMS_P2;Temp;Humidity;BMP_temperature;BMP_pressure;BME280_temperature;BME280_humidity;BME280_pressure;Samples;Min_cycle;Max_cycle;Signal;HPM_P1;HPM_P2
2023/12/24 00:02:23;;;;;;;1.53;1.20;;;9.30;98.00;;;;;;4974584;28;20453;-69
2023/12/24 00:04:50;;;;;;;1.80;1.20;;;9.30;98.00;;;;;;4974143;28;20944;-71
2023/12/24 00:07:17;;;;;;;1.20;1.10;;;9.30;98.00;;;;;;4974163;28;20939;-68
2023/12/24 00:09:45;;;;;;;1.53;1.30;;;9.30;98.00;;;;;;4973826;28;20816;-67
2023/12/24 00:12:12;;;;;;;1.63;1.20;;;9.40;98.00;;;;;;4974275;28;20484;-67
2023/12/24 00:14:40;;;;;;;3.77;1.47;;;9.40;98.00;;;;;;4974265;28;20460;-67
2023/12/24 00:17:07;;;;;;;3.30;1.20;;;9.40;98.00;;;;;;4974230;28;20492;-67
2023/12/24 00:19:34;;;;;;;1.20;1.20;;;9.40;98.00;;;;;;4974159;28;20457;-67
2023/12/24 00:22:01;;;;;;;1.30;1.27;;;9.40;98.00;;;;;;4974096;28;20464;-67
2023/12/24 00:24:28;;;;;;;1.67;1.40;;;9.40;98.00;;;;;;4973925;28;20450;-67
2023/12/24 00:26:55;;;;;;;1.57;1.27;;;9.40;98.00;;;;;;4973186;28;20454;-67
2023/12/24 00:29:38;;;;;;;1.70;1.40;;;9.40;98.00;;;;;;4974157;28;20927;-68
2023/12/24 00:32:06;;;;;;;1.27;1.10;;;9.40;98.00;;;;;;4974123;28;20544;-68
2023/12/24 00:34:35;;;;;;;1.33;1.27;;;9.40;98.00;;;;;;4973791;28;20484;-68
2023/12/24 00:37:05;;;;;;;1.20;1.13;;;9.40;98.00;;;;;;4973634;28;20460;-69
2023/12/24 00:39:33;;;;;;;1.37;1.17;;;9.50;98.00;;;;;;4972628;28;20454;-67
2023/12/24 00:42:00;;;;;;;1.30;1.20;;;9.40;98.00;;;;;;4973935;28;20464;-68
2023/12/24 00:44:27;;;;;;;1.80;1.33;;;9.50;98.00;;;;;;4973521;28;21034;-67
2023/12/24 00:46:54;;;;;;;1.40;1.20;;;9.40;98.00;;;;;;4972786;28;20465;-67
2023/12/24 00:49:24;;;;;;;1.20;1.17;;;9.40;98.00;;;;;;4973899;28;20454;-68
2023/12/24 00:51:53;;;;;;;1.30;1.10;;;9.40;98.00;;;;;;4973913;28;20492;-68
2023/12/24 00:54:20;;;;;;;1.40;1.30;;;9.40;98.00;;;;;;4973803;28;20971;-67
2023/12/24 00:56:48;;;;;;;2.63;1.30;;;9.40;98.00;;;;;;4974163;28;20459;-68
2023/12/24 00:59:15;;;;;;;1.60;1.23;;;9.40;98.00;;;;;;4974036;28;20449;-69
2023/12/24 01:01:42;;;;;;;1.20;1.17;;;9.50;98.00;;;;;;4973499;28;20461;-70
2023/12/24 01:04:09;;;;;;;1.20;1.10;;;9.50;98.00;;;;;;4973559;28;20457;-68
2023/12/24 01:06:45;;;;;;;1.30;1.17;;;9.50;98.00;;;;;;4972310;28;20509;-68
2023/12/24 01:09:13;;;;;;;1.30;1.20;;;9.50;98.00;;;;;;4973157;28;20829;-68
2023/12/24 01:11:41;;;;;;;1.40;1.30;;;9.50;98.00;;;;;;4972491;28;21006;-68
2023/12/24 01:14:09;;;;;;;1.57;1.33;;;9.50;98.00;;;;;;4971277;28;20523;-67
2023/12/24 01:16:40;;;;;;;1.40;1.20;;;9.50;98.00;;;;;;4973299;28;20460;-69
2023/12/24 01:19:07;;;;;;;2.10;1.43;;;9.50;98.00;;;;;;4973104;28;20953;-68
2023/12/24 01:21:34;;;;;;;1.47;1.23;;;9.50;98.00;;;;;;4973079;28;20464;-67
2023/12/24 01:24:03;;;;;;;1.30;1.20;;;9.50;98.00;;;;;;4973089;28;20464;-68
2023/12/24 01:26:35;;;;;;;1.20;1.10;;;9.50;98.00;;;;;;4973117;28;20453;-68
2023/12/24 01:29:03;;;;;;;2.27;1.30;;;9.50;98.00;;;;;;4973020;28;20454;-69
2023/12/24 01:31:30;;;;;;;1.40;1.20;;;9.50;98.00;;;;;;4971884;28;20482;-69
2023/12/24 01:33:57;;;;;;;1.83;1.23;;;9.50;98.00;;;;;;4973024;28;20788;-68
2023/12/24 01:36:24;;;;;;;1.40;1.10;;;9.50;98.00;;;;;;4973178;28;20464;-69
2023/12/24 01:38:51;;;;;;;1.20;1.20;;;9.50;98.00;;;;;;4972768;28;20452;-68
2023/12/24 01:41:20;;;;;;;1.20;1.10;;;9.50;98.00;;;;;;4971797;28;20511;-68
2023/12/24 01:43:48;;;;;;;1.37;1.10;;;9.50;98.00;;;;;;4973107;28;20472;-68
2023/12/24 01:46:21;;;;;;;1.20;1.10;;;9.50;98.00;;;;;;4972921;28;21119;-67
2023/12/24 01:48:51;;;;;;;1.40;1.20;;;9.40;98.00;;;;;;4973003;28;20459;-69
2023/12/24 01:51:19;;;;;;;1.10;1.00;;;9.40;98.00;;;;;;4971783;28;20481;-67
2023/12/24 01:53:47;;;;;;;1.63;1.13;;;9.40;98.00;;;;;;4973112;28;20464;-67
2023/12/24 01:56:16;;;;;;;1.73;1.30;;;9.40;98.00;;;;;;4972799;28;20465;-69
2023/12/24 01:58:45;;;;;;;1.30;1.10;;;9.50;98.00;;;;;;4972706;28;20788;-68
2023/12/24 02:01:12;;;;;;;1.20;1.10;;;9.50;98.00;;;;;;4972937;28;20845;-68
2023/12/24 02:03:39;;;;;;;1.20;1.10;;;9.50;98.00;;;;;;4972947;28;20464;-68
2023/12/24 02:06:09;;;;;;;1.20;1.10;;;9.50;98.00;;;;;;4972428;28;20469;-68
2023/12/24 02:08:37;;;;;;;1.33;1.30;;;9.50;98.00;;;;;;4972842;28;20457;-70
2023/12/24 02:11:05;;;;;;;1.43;1.20;;;9.40;98.00;;;;;;4972731;28;21007;-68
2023/12/24 02:13:32;;;;;;;1.53;1.30;;;9.50;98.00;;;;;;4971755;28;20453;-68
2023/12/24 02:16:03;;;;;;;1.40;1.20;;;9.50;98.00;;;;;;4972798;28;20466;-68
2023/12/24 02:18:30;;;;;;;1.40;1.20;;;9.50;98.00;;;;;;4972910;28;20874;-70
2023/12/24 02:21:02;;;;;;;1.40;1.20;;;9.50;98.00;;;;;;4972725;28;20519;-68
2023/12/24 02:23:30;;;;;;;1.30;1.20;;;9.50;98.00;;;;;;4976243;28;20448;-68
2023/12/24 02:26:01;;;;;;;1.37;1.20;;;9.50;98.00;;;;;;4976364;28;20549;-69
2023/12/24 02:28:31;;;;;;;1.30;1.20;;;9.40;98.00;;;;;;4976586;28;20486;-69
2023/12/24 02:31:03;;;;;;;1.20;1.10;;;9.50;98.00;;;;;;4975919;28;20495;-69
2023/12/24 02:33:35;;;;;;;1.20;1.10;;;9.50;98.00;;;;;;4975680;28;20459;-67
2023/12/24 02:36:07;;;;;;;1.30;1.30;;;9.50;98.00;;;;;;4975732;28;20454;-68
2023/12/24 02:38:34;;;;;;;2.03;1.40;;;9.50;98.00;;;;;;4975357;28;20463;-68
2023/12/24 02:41:03;;;;;;;1.30;1.30;;;9.50;98.00;;;;;;4975444;28;20458;-68
2023/12/24 02:43:31;;;;;;;1.20;1.10;;;9.50;98.00;;;;;;4975692;28;20481;-68
2023/12/24 02:45:59;;;;;;;1.20;1.10;;;9.50;98.00;;;;;;4975974;28;20465;-68
2023/12/24 02:48:26;;;;;;;1.33;1.30;;;9.50;98.00;;;;;;4976251;28;20456;-67
2023/12/24 02:50:54;;;;;;;1.70;1.30;;;9.50;98.00;;;;;;4975942;28;20562;-67
2023/12/24 02:53:23;;;;;;;2.20;1.40;;;9.50;98.00;;;;;;4975628;28;20449;-68
2023/12/24 02:55:50;;;;;;;1.40;1.23;;;9.50;98.00;;;;;;4975484;28;20454;-68
2023/12/24 02:58:18;;;;;;;1.20;1.10;;;9.50;98.00;;;;;;4974993;28;20521;-68
2023/12/24 03:00:45;;;;;;;2.90;1.20;;;9.50;98.00;;;;;;4975362;28;20460;-68
2023/12/24 03:03:12;;;;;;;1.50;1.27;;;9.50;98.00;;;;;;4975765;28;20493;-68
2023/12/24 03:05:39;;;;;;;3.60;1.50;;;9.50;98.00;;;;;;4973519;28;20457;-68
2023/12/24 03:08:06;;;;;;;1.60;1.20;;;9.40;98.00;;;;;;4975526;28;20464;-70
2023/12/24 03:10:35;;;;;;;1.30;1.20;;;9.50;98.00;;;;;;4973490;28;20866;-68
2023/12/24 03:13:02;;;;;;;3.10;1.20;;;9.50;98.00;;;;;;4975456;28;20502;-67
2023/12/24 03:15:29;;;;;;;1.60;1.20;;;9.50;98.00;;;;;;4975067;28;20935;-68
2023/12/24 03:17:57;;;;;;;1.50;1.30;;;9.50;98.00;;;;;;4975480;28;20448;-69
2023/12/24 03:20:24;;;;;;;1.70;1.33;;;9.50;98.00;;;;;;4974918;28;20458;-68
2023/12/24 03:22:51;;;;;;;1.50;1.40;;;9.50;98.00;;;;;;4975101;28;20457;-67
2023/12/24 03:25:19;;;;;;;1.30;1.17;;;9.50;98.00;;;;;;4975219;28;20506;-68
2023/12/24 03:27:47;;;;;;;1.80;1.30;;;9.50;98.00;;;;;;4973994;28;20456;-68
2023/12/24 03:30:18;;;;;;;2.90;1.30;;;9.50;98.00;;;;;;4975132;28;20452;-68
2023/12/24 03:32:45;;;;;;;1.40;1.20;;;9.50;98.00;;;;;;4974866;28;20488;-68
2023/12/24 03:35:12;;;;;;;2.30;1.47;;;9.50;98.00;;;;;;4974389;28;20476;-68
2023/12/24 03:37:39;;;;;;;1.50;1.27;;;9.50;98.00;;;;;;4973735;28;20508;-69
2023/12/24 03:40:07;;;;;;;1.57;1.30;;;9.50;98.00;;;;;;4975000;28;20820;-69
2023/12/24 03:42:34;;;;;;;2.03;1.40;;;9.50;98.00;;;;;;4974760;28;20463;-67
2023/12/24 03:45:03;;;;;;;1.50;1.20;;;9.50;98.00;;;;;;4973803;28;20482;-68
2023/12/24 03:47:30;;;;;;;1.73;1.30;;;9.50;98.00;;;;;;4974809;28;20460;-67
2023/12/24 03:49:57;;;;;;;1.87;1.60;;;9.50;98.00;;;;;;4974762;28;20460;-68
2023/12/24 03:52:27;;;;;;;1.40;1.30;;;9.50;98.00;;;;;;4974884;28;20894;-68
2023/12/24 03:54:54;;;;;;;1.80;1.40;;;9.60;98.00;;;;;;4974673;28;20480;-70
2023/12/24 03:57:21;;;;;;;1.70;1.40;;;9.50;98.00;;;;;;4973490;28;20456;-68
2023/12/24 03:59:48;;;;;;;1.40;1.27;;;9.50;98.00;;;;;;4974977;28;20500;-69
2023/12/24 04:02:17;;;;;;;1.87;1.40;;;9.50;98.00;;;;;;4974469;28;20467;-67
2023/12/24 04:04:45;;;;;;;1.83;1.20;;;9.60;98.00;;;;;;4974340;28;20457;-69
2023/12/24 04:07:13;;;;;;;1.87;1.47;;;9.50;98.00;;;;;;4974479;28;20524;-68
2023/12/24 04:09:42;;;;;;;1.40;1.30;;;9.50;98.00;;;;;;4973209;28;20465;-67
2023/12/24 04:12:09;;;;;;;1.57;1.30;;;9.50;98.00;;;;;;4974297;28;20499;-68
2023/12/24 04:14:39;;;;;;;2.10;1.37;;;9.50;98.00;;;;;;4974306;28;20451;-68
2023/12/24 04:17:07;;;;;;;1.87;1.50;;;9.50;98.00;;;;;;4974073;28;20554;-70
2023/12/24 04:19:36;;;;;;;1.50;1.33;;;9.50;98.00;;;;;;4974009;28;20804;-70
2023/12/24 04:22:03;;;;;;;2.17;1.50;;;9.50;98.00;;;;;;4974480;28;20453;-67
2023/12/24 04:24:30;;;;;;;1.90;1.40;;;9.50;98.00;;;;;;4973067;28;21037;-68
2023/12/24 04:26:57;;;;;;;2.67;1.40;;;9.50;98.00;;;;;;4974266;28;20459;-68
2023/12/24 04:29:24;;;;;;;1.73;1.30;;;9.50;98.00;;;;;;4974038;28;20469;-68
2023/12/24 04:31:51;;;;;;;1.70;1.30;;;9.50;98.00;;;;;;4974034;28;20496;-68
2023/12/24 04:34:18;;;;;;;1.90;1.50;;;9.50;98.00;;;;;;4972938;28;20503;-67
2023/12/24 04:36:47;;;;;;;2.40;1.60;;;9.50;98.00;;;;;;4974204;28;20464;-68
2023/12/24 04:39:14;;;;;;;1.30;1.23;;;9.50;98.00;;;;;;4973127;28;20455;-69
2023/12/24 04:41:41;;;;;;;2.23;1.50;;;9.50;98.00;;;;;;4973660;28;20480;-68
2023/12/24 04:44:08;;;;;;;1.40;1.30;;;9.50;98.00;;;;;;4973935;28;20458;-68
2023/12/24 04:46:41;;;;;;;1.60;1.40;;;9.60;98.00;;;;;;4972722;28;20460;-68
2023/12/24 04:49:08;;;;;;;2.70;1.50;;;9.60;98.00;;;;;;4973607;28;20493;-68
2023/12/24 04:51:36;;;;;;;1.63;1.20;;;9.60;98.00;;;;;;4973401;28;20488;-68
2023/12/24 04:54:05;;;;;;;2.20;1.70;;;9.60;98.00;;;;;;4973710;28;20460;-69
2023/12/24 04:56:32;;;;;;;1.50;1.30;;;9.60;98.00;;;;;;4973591;28;20461;-68
2023/12/24 04:58:59;;;;;;;1.80;1.40;;;9.60;98.00;;;;;;4973747;28;20826;-68
2023/12/24 05:01:26;;;;;;;2.27;1.57;;;9.50;98.00;;;;;;4971909;28;20905;-67
2023/12/24 05:06:23;;;;;;;1.47;1.33;;;9.50;98.00;;;;;;4971028;28;20481;-68
2023/12/24 05:08:50;;;;;;;1.60;1.40;;;9.50;98.00;;;;;;4969960;28;20457;-68
2023/12/24 05:11:19;;;;;;;1.77;1.43;;;9.50;98.00;;;;;;4970514;28;20454;-68
2023/12/24 05:13:46;;;;;;;1.53;1.30;;;9.50;98.00;;;;;;4970547;28;20667;-68
2023/12/24 05:16:13;;;;;;;1.90;1.53;;;9.50;98.00;;;;;;4971553;28;20479;-68
2023/12/24 05:18:40;;;;;;;1.87;1.57;;;9.60;98.00;;;;;;4972005;28;20454;-69
2023/12/24 05:21:07;;;;;;;1.90;1.37;;;9.50;98.00;;;;;;4971659;28;20453;-68
2023/12/24 05:23:34;;;;;;;1.63;1.40;;;9.50;98.00;;;;;;4971632;28;20854;-67
2023/12/24 05:26:02;;;;;;;1.63;1.40;;;9.60;98.00;;;;;;4971604;28;20463;-67
2023/12/24 05:28:30;;;;;;;2.00;1.50;;;9.50;98.00;;;;;;4971605;28;20457;-67
2023/12/24 05:30:58;;;;;;;1.77;1.30;;;9.50;98.00;;;;;;4971721;28;20517;-67
2023/12/24 05:33:25;;;;;;;1.40;1.20;;;9.50;98.00;;;;;;4971806;28;20496;-68
2023/12/24 05:35:52;;;;;;;2.40;1.37;;;9.50;98.00;;;;;;4971763;28;20938;-67
2023/12/24 05:38:19;;;;;;;1.70;1.57;;;9.40;98.00;;;;;;4971586;28;20464;-66
2023/12/24 05:40:47;;;;;;;1.60;1.40;;;9.40;98.00;;;;;;4971379;28;20452;-67
2023/12/24 05:43:14;;;;;;;1.20;1.10;;;9.40;98.00;;;;;;4971680;28;20735;-67
2023/12/24 05:45:43;;;;;;;1.43;1.33;;;9.40;98.00;;;;;;4971334;28;20460;-68
2023/12/24 05:48:10;;;;;;;1.80;1.40;;;9.40;98.00;;;;;;4971422;28;20456;-69
2023/12/24 05:50:37;;;;;;;1.57;1.40;;;9.30;98.00;;;;;;4971301;28;20456;-68
2023/12/24 05:53:05;;;;;;;1.30;1.20;;;9.40;98.00;;;;;;4971614;28;20512;-68
2023/12/24 05:55:32;;;;;;;1.40;1.20;;;9.40;98.00;;;;;;4971249;28;20469;-67
2023/12/24 05:57:59;;;;;;;1.90;1.43;;;9.40;98.00;;;;;;4973966;28;20460;-68
2023/12/24 06:00:26;;;;;;;1.40;1.30;;;9.30;98.00;;;;;;4974578;28;20458;-69
2023/12/24 06:02:55;;;;;;;1.80;1.33;;;9.30;98.00;;;;;;4973631;28;20481;-69
2023/12/24 06:05:25;;;;;;;1.83;1.30;;;9.30;98.00;;;;;;4935056;28;1162021;-68
2023/12/24 06:07:52;;;;;;;1.30;1.30;;;9.30;98.00;;;;;;4975883;28;20204;-69
2023/12/24 06:10:19;;;;;;;1.70;1.40;;;9.30;98.00;;;;;;4974370;28;20931;-68
2023/12/24 06:12:51;;;;;;;1.63;1.30;;;9.40;98.00;;;;;;4975383;28;20496;-67
2023/12/24 06:15:18;;;;;;;1.30;1.30;;;9.40;98.00;;;;;;4975350;28;20464;-69
2023/12/24 06:17:45;;;;;;;1.60;1.40;;;9.30;98.00;;;;;;4975629;28;20460;-67
2023/12/24 06:20:14;;;;;;;1.80;1.40;;;9.30;98.00;;;;;;4975224;28;21021;-67
2023/12/24 06:22:41;;;;;;;1.50;1.40;;;9.30;98.00;;;;;;4975571;28;20456;-67
2023/12/24 06:25:08;;;;;;;1.43;1.17;;;9.40;98.00;;;;;;4958635;28;20471;-70
2023/12/24 06:27:36;;;;;;;1.50;1.30;;;9.40;98.00;;;;;;4975876;28;20455;-68
2023/12/24 06:30:04;;;;;;;1.40;1.30;;;9.40;98.00;;;;;;4975730;28;20555;-68
2023/12/24 06:32:31;;;;;;;2.07;1.57;;;9.40;98.00;;;;;;4975499;28;20484;-68
2023/12/24 06:34:59;;;;;;;1.47;1.20;;;9.40;98.00;;;;;;4975493;28;20457;-67
2023/12/24 06:37:27;;;;;;;1.60;1.30;;;9.40;98.00;;;;;;4974109;28;20464;-67
2023/12/24 06:39:54;;;;;;;1.40;1.40;;;9.40;98.00;;;;;;4974784;28;20483;-68
2023/12/24 06:42:21;;;;;;;2.13;1.40;;;9.40;98.00;;;;;;4957315;28;20954;-68
2023/12/24 06:44:49;;;;;;;1.40;1.20;;;9.40;98.00;;;;;;4985968;28;20456;-67
2023/12/24 06:47:16;;;;;;;1.37;1.33;;;9.40;98.00;;;;;;4993641;28;20447;-67
2023/12/24 06:49:44;;;;;;;1.30;1.20;;;9.40;98.00;;;;;;4977158;28;20447;-67
2023/12/24 06:52:11;;;;;;;1.87;1.30;;;9.40;98.00;;;;;;4994386;28;20492;-67
2023/12/24 06:54:40;;;;;;;1.30;1.10;;;9.40;98.00;;;;;;4994295;28;20454;-69
2023/12/24 06:57:08;;;;;;;1.87;1.30;;;9.40;98.00;;;;;;4994634;28;20451;-67
2023/12/24 06:59:36;;;;;;;1.70;1.23;;;9.40;98.00;;;;;;4994954;28;20456;-67
2023/12/24 07:02:03;;;;;;;1.57;1.30;;;9.40;98.00;;;;;;4995510;28;20462;-63
2023/12/24 07:04:30;;;;;;;1.40;1.30;;;9.40;98.00;;;;;;4994437;28;20468;-63
2023/12/24 07:06:57;;;;;;;1.60;1.40;;;9.50;98.00;;;;;;4994708;28;20452;-63
2023/12/24 07:09:24;;;;;;;1.87;1.27;;;9.50;98.00;;;;;;4993544;28;20534;-64
2023/12/24 07:11:56;;;;;;;1.40;1.30;;;9.50;98.00;;;;;;4994515;28;20452;-62
2023/12/24 07:14:23;;;;;;;2.03;1.20;;;9.50;98.00;;;;;;4994807;28;20464;-63
2023/12/24 07:16:50;;;;;;;1.50;1.40;;;9.50;98.00;;;;;;4994746;28;20459;-64
2023/12/24 07:19:17;;;;;;;1.70;1.30;;;9.50;98.00;;;;;;4994785;28;20993;-63
2023/12/24 07:21:45;;;;;;;2.13;1.30;;;9.50;98.00;;;;;;4994626;28;20956;-63
2023/12/24 07:24:13;;;;;;;1.40;1.30;;;9.60;98.00;;;;;;4994952;28;20469;-64
2023/12/24 07:26:40;;;;;;;1.77;1.40;;;9.60;98.00;;;;;;4994534;28;20460;-63
2023/12/24 07:29:11;;;;;;;1.20;1.20;;;9.60;98.00;;;;;;4994857;28;20453;-63
2023/12/24 07:34:06;;;;;;;1.60;1.30;;;9.60;98.00;;;;;;4972479;28;21007;-63
2023/12/24 07:36:33;;;;;;;1.43;1.30;;;9.60;98.00;;;;;;4974734;28;20459;-63
2023/12/24 07:39:00;;;;;;;1.43;1.20;;;9.60;98.00;;;;;;4974917;28;20449;-63
2023/12/24 07:41:27;;;;;;;1.20;1.20;;;9.60;98.00;;;;;;4974471;28;20453;-63
2023/12/24 07:43:54;;;;;;;1.60;1.30;;;9.50;98.00;;;;;;4974485;28;21089;-64
2023/12/24 07:46:22;;;;;;;1.57;1.30;;;9.50;98.00;;;;;;4974779;28;20809;-64
2023/12/24 07:48:50;;;;;;;1.20;1.20;;;9.40;98.00;;;;;;4973104;28;20464;-63
2023/12/24 07:51:17;;;;;;;1.70;1.40;;;9.50;98.00;;;;;;4974700;28;20449;-63
2023/12/24 07:53:44;;;;;;;1.20;1.20;;;9.40;98.00;;;;;;4973966;28;20516;-63
2023/12/24 07:56:11;;;;;;;1.80;1.50;;;9.40;98.00;;;;;;4973184;28;20451;-63
2023/12/24 07:58:38;;;;;;;1.27;1.23;;;9.40;98.00;;;;;;4974295;28;20454;-63
2023/12/24 08:01:05;;;;;;;1.30;1.30;;;9.40;98.00;;;;;;4974193;28;20461;-64
2023/12/24 08:03:34;;;;;;;2.70;1.20;;;9.40;98.00;;;;;;4973683;28;20457;-64
2023/12/24 08:06:01;;;;;;;1.27;1.13;;;9.40;98.00;;;;;;4974628;28;20476;-63
2023/12/24 08:08:29;;;;;;;1.40;1.10;;;9.40;98.00;;;;;;4974437;28;20459;-64
2023/12/24 08:10:55;;;;;;;1.20;1.20;;;9.50;98.00;;;;;;4974571;28;21023;-63
2023/12/24 08:13:21;;;;;;;1.30;1.20;;;9.40;98.00;;;;;;4974356;28;20489;-63
2023/12/24 08:15:49;;;;;;;1.20;1.10;;;9.40;98.00;;;;;;4974236;28;20840;-64
2023/12/24 08:18:16;;;;;;;1.30;1.20;;;9.40;98.00;;;;;;4973921;28;20466;-64
2023/12/24 08:20:44;;;;;;;1.27;1.20;;;9.40;98.00;;;;;;4973586;28;20463;-63
2023/12/24 08:23:12;;;;;;;2.67;1.20;;;9.40;98.00;;;;;;4973761;28;20460;-63
2023/12/24 08:25:39;;;;;;;1.20;1.07;;;9.40;98.00;;;;;;4973912;28;20514;-64
2023/12/24 08:28:07;;;;;;;1.60;1.20;;;9.50;98.00;;;;;;4972497;28;20465;-63
2023/12/24 08:30:34;;;;;;;1.20;1.10;;;9.60;98.00;;;;;;4959407;28;20536;-63
2023/12/24 08:33:01;;;;;;;1.83;1.10;;;9.60;98.00;;;;;;4954087;28;21032;-64
2023/12/24 08:35:28;;;;;;;1.60;1.20;;;9.60;98.00;;;;;;4954063;28;20459;-62
2023/12/24 08:37:56;;;;;;;2.10;1.07;;;9.70;98.00;;;;;;4954485;28;20461;-63
2023/12/24 08:40:27;;;;;;;1.70;1.20;;;9.70;98.00;;;;;;4953870;29;20460;-63
2023/12/24 08:42:54;;;;;;;1.40;1.30;;;9.80;98.00;;;;;;4954423;28;20994;-64
2023/12/24 08:45:22;;;;;;;1.40;1.10;;;9.80;98.00;;;;;;4964485;28;20452;-64
2023/12/24 08:47:49;;;;;;;1.20;1.10;;;9.80;98.00;;;;;;4964592;28;20462;-63
2023/12/24 08:50:17;;;;;;;1.43;1.10;;;9.80;98.00;;;;;;4964175;28;20457;-64
2023/12/24 08:52:44;;;;;;;1.20;1.17;;;9.90;98.00;;;;;;4961644;28;20576;-64
2023/12/24 08:55:15;;;;;;;1.20;1.10;;;9.90;98.00;;;;;;4962394;28;20457;-63
2023/12/24 08:57:42;;;;;;;1.57;1.30;;;9.80;98.00;;;;;;4962262;28;21154;-62
2023/12/24 09:00:11;;;;;;;1.20;1.20;;;9.90;98.00;;;;;;4963764;28;20795;-63
2023/12/24 09:02:39;;;;;;;1.30;1.10;;;9.90;98.00;;;;;;4959568;28;20462;-63
2023/12/24 09:05:08;;;;;;;1.20;1.20;;;9.90;98.00;;;;;;4970328;28;20450;-63
2023/12/24 09:07:35;;;;;;;1.63;1.10;;;9.90;98.00;;;;;;4972414;28;20499;-63
2023/12/24 09:10:04;;;;;;;1.20;1.20;;;10.00;98.00;;;;;;4973207;28;20463;-64
2023/12/24 09:12:33;;;;;;;2.50;1.20;;;10.10;98.00;;;;;;4972742;28;20876;-63
2023/12/24 09:15:00;;;;;;;1.20;1.00;;;10.10;98.00;;;;;;4967463;28;20456;-63
2023/12/24 09:17:27;;;;;;;1.30;1.10;;;10.10;98.00;;;;;;4972979;28;20461;-63
2023/12/24 09:19:54;;;;;;;1.23;1.07;;;10.20;98.00;;;;;;4973047;28;20454;-62
2023/12/24 09:22:22;;;;;;;1.30;1.10;;;10.20;98.00;;;;;;4973315;28;20485;-62
2023/12/24 09:27:24;;;;;;;1.20;1.10;;;10.20;98.00;;;;;;4977077;23;20492;-63
2023/12/24 09:29:53;;;;;;;2.10;1.13;;;10.20;98.00;;;;;;4952950;28;20462;-62
2023/12/24 09:32:20;;;;;;;1.10;1.10;;;10.20;98.00;;;;;;4952280;28;20462;-61
2023/12/24 09:34:47;;;;;;;1.10;1.10;;;10.30;98.00;;;;;;4952956;28;20488;-62
2023/12/24 09:37:14;;;;;;;1.20;1.20;;;10.30;98.00;;;;;;4953080;28;20457;-61
2023/12/24 09:39:41;;;;;;;1.40;1.10;;;10.20;98.00;;;;;;4967784;28;20458;-61
2023/12/24 09:42:08;;;;;;;1.30;1.30;;;10.20;98.00;;;;;;4957386;28;20962;-62
2023/12/24 09:44:36;;;;;;;1.20;1.10;;;10.20;98.00;;;;;;4974448;28;20464;-62
2023/12/24 09:47:05;;;;;;;2.17;1.20;;;10.20;98.00;;;;;;4991843;28;20511;-61
2023/12/24 09:49:32;;;;;;;1.40;1.10;;;10.20;98.00;;;;;;4991238;28;20793;-62
2023/12/24 09:52:00;;;;;;;1.87;1.37;;;10.20;98.00;;;;;;4991553;28;20814;-62
2023/12/24 09:54:37;;;;;;;1.30;1.20;;;10.10;98.00;;;;;;4991553;28;20986;-62
2023/12/24 09:57:04;;;;;;;1.30;1.20;;;10.10;98.00;;;;;;4992315;28;20846;-62
2023/12/24 09:59:31;;;;;;;2.73;1.10;;;10.10;98.00;;;;;;4992006;28;20464;-62
2023/12/24 10:01:57;;;;;;;1.33;1.17;;;10.00;98.00;;;;;;4990447;28;20460;-62
2023/12/24 10:04:26;;;;;;;1.80;1.30;;;10.00;98.00;;;;;;4991535;28;20527;-62
2023/12/24 10:06:55;;;;;;;3.10;1.30;;;10.00;98.00;;;;;;4991602;28;20444;-62
2023/12/24 10:09:23;;;;;;;1.57;1.23;;;10.10;98.00;;;;;;4991764;28;20554;-62
2023/12/24 10:12:07;;;;;;;1.50;1.10;;;10.10;98.00;;;;;;4991693;28;20459;-61
2023/12/24 10:14:34;;;;;;;1.20;1.20;;;10.00;98.00;;;;;;4991473;28;20564;-62
2023/12/24 10:17:03;;;;;;;1.33;1.13;;;10.00;98.00;;;;;;4990524;28;21078;-62
2023/12/24 10:19:31;;;;;;;1.30;1.10;;;9.90;98.00;;;;;;4990714;28;20935;-63
2023/12/24 10:22:03;;;;;;;1.30;1.10;;;10.00;98.00;;;;;;4990525;28;20464;-64
2023/12/24 10:24:30;;;;;;;1.17;1.00;;;10.00;98.00;;;;;;4990596;28;20540;-62
2023/12/24 10:27:05;;;;;;;1.20;1.20;;;10.00;98.00;;;;;;4990206;28;20518;-61
2023/12/24 10:29:33;;;;;;;1.27;1.20;;;10.10;98.00;;;;;;4990523;28;20483;-61
2023/12/24 10:32:00;;;;;;;1.20;1.20;;;10.10;98.00;;;;;;4991195;28;20550;-63
2023/12/24 10:34:28;;;;;;;1.30;1.30;;;10.10;98.00;;;;;;4991310;28;20554;-62
2023/12/24 10:36:58;;;;;;;1.30;1.20;;;10.10;98.00;;;;;;4991303;28;20539;-59
2023/12/24 10:39:25;;;;;;;1.73;1.20;;;10.20;98.00;;;;;;4991724;28;20535;-62
2023/12/24 10:41:54;;;;;;;2.07;1.10;;;10.20;98.00;;;;;;4991774;28;20954;-62
2023/12/24 10:44:22;;;;;;;1.20;1.10;;;10.20;98.00;;;;;;4994645;28;20642;-62
2023/12/24 10:46:49;;;;;;;1.30;1.20;;;10.20;98.00;;;;;;4995081;28;21003;-62
2023/12/24 10:49:16;;;;;;;1.40;1.40;;;10.20;98.00;;;;;;4995169;28;20453;-62
2023/12/24 10:51:43;;;;;;;1.40;1.20;;;10.20;98.00;;;;;;4995126;28;20457;-62
2023/12/24 10:54:12;;;;;;;1.53;1.30;;;10.30;98.00;;;;;;4995118;28;20500;-63
2023/12/24 10:56:51;;;;;;;1.43;1.20;;;10.30;98.00;;;;;;4994947;28;20459;-62
2023/12/24 10:59:31;;;;;;;1.20;1.10;;;10.30;98.00;;;;;;4993980;28;20479;-62
2023/12/24 11:02:00;;;;;;;1.30;1.20;;;10.30;98.00;;;;;;4995201;28;21018;-63
2023/12/24 11:04:44;;;;;;;1.67;1.37;;;10.40;98.00;;;;;;4993675;28;20492;-63
2023/12/24 11:07:37;;;;;;;1.37;1.13;;;10.50;98.00;;;;;;4994813;28;20559;-63
2023/12/24 11:10:06;;;;;;;1.40;1.20;;;10.60;98.00;;;;;;4993944;28;20958;-63
2023/12/24 11:12:34;;;;;;;1.30;1.20;;;10.50;98.00;;;;;;4968460;28;21045;-63
2023/12/24 11:15:02;;;;;;;1.50;1.30;;;10.60;98.00;;;;;;4975076;28;20493;-63
2023/12/24 11:17:49;;;;;;;1.30;1.20;;;10.60;98.00;;;;;;5006258;28;20470;-62
2023/12/24 11:20:44;;;;;;;1.30;1.20;;;10.50;98.00;;;;;;4975321;28;20455;-62
2023/12/24 11:23:16;;;;;;;1.40;1.20;;;10.50;98.00;;;;;;4975652;28;20457;-62
2023/12/24 11:25:45;;;;;;;1.20;1.13;;;10.40;98.00;;;;;;4975189;28;20466;-62
2023/12/24 11:28:14;;;;;;;1.20;1.10;;;10.40;98.00;;;;;;4975132;28;20461;-63
2023/12/24 11:31:04;;;;;;;1.33;1.10;;;10.40;98.00;;;;;;4975129;28;20461;-63
2023/12/24 11:33:49;;;;;;;1.20;1.10;;;10.40;98.00;;;;;;4975049;28;20485;-63
2023/12/24 11:36:19;;;;;;;1.10;1.10;;;10.30;98.00;;;;;;4974697;28;20457;-63
2023/12/24 11:38:48;;;;;;;1.30;1.20;;;10.30;98.00;;;;;;4974863;28;20477;-63
2023/12/24 11:41:18;;;;;;;1.20;1.20;;;10.40;98.00;;;;;;4975016;28;20483;-63
2023/12/24 11:43:53;;;;;;;2.73;1.20;;;10.40;98.00;;;;;;4975049;28;20517;-63
2023/12/24 11:46:21;;;;;;;1.30;1.20;;;10.50;98.00;;;;;;4989557;28;20979;-62
2023/12/24 11:48:50;;;;;;;1.20;1.13;;;10.50;98.00;;;;;;4974853;28;20456;-62
2023/12/24 11:51:23;;;;;;;1.33;1.20;;;10.60;98.00;;;;;;5005524;28;20457;-63
2023/12/24 11:54:00;;;;;;;1.17;1.10;;;10.60;98.00;;;;;;4975321;28;20922;-63
2023/12/24 11:56:30;;;;;;;1.30;1.10;;;10.60;98.00;;;;;;4974584;28;20471;-63
2023/12/24 11:59:02;;;;;;;1.43;1.30;;;10.60;98.00;;;;;;4974980;28;20489;-62
2023/12/24 12:01:31;;;;;;;1.20;1.10;;;10.60;98.00;;;;;;4974536;28;20453;-63
2023/12/24 12:04:03;;;;;;;1.30;1.20;;;10.70;98.00;;;;;;5005885;28;20450;-65
2023/12/24 12:06:31;;;;;;;1.20;1.20;;;10.70;98.00;;;;;;4974834;28;21038;-62
2023/12/24 12:09:04;;;;;;;1.30;1.20;;;10.70;98.00;;;;;;5005622;28;20508;-62
2023/12/24 12:11:36;;;;;;;1.20;1.10;;;10.70;98.00;;;;;;4974758;28;20536;-63
2023/12/24 12:14:05;;;;;;;1.50;1.17;;;10.70;98.00;;;;;;4974379;28;21007;-63
2023/12/24 12:16:32;;;;;;;1.20;1.07;;;10.70;98.00;;;;;;4974408;28;20528;-63
2023/12/24 12:18:59;;;;;;;1.20;1.10;;;10.70;98.00;;;;;;4974685;28;20830;-62
2023/12/24 12:21:26;;;;;;;1.20;1.20;;;10.70;98.00;;;;;;4974163;28;20453;-63
2023/12/24 12:23:54;;;;;;;1.23;1.20;;;10.80;98.00;;;;;;4974256;28;20448;-63
2023/12/24 12:26:21;;;;;;;1.40;1.27;;;10.80;98.00;;;;;;4988777;28;20468;-63
2023/12/24 12:28:51;;;;;;;1.30;1.10;;;10.90;98.00;;;;;;4974205;28;20449;-63
2023/12/24 12:31:18;;;;;;;1.97;1.20;;;10.90;98.00;;;;;;4974104;28;21015;-63
2023/12/24 12:33:45;;;;;;;1.23;1.00;;;10.90;98.00;;;;;;4974351;28;20489;-63
2023/12/24 12:36:13;;;;;;;1.30;1.20;;;11.00;98.00;;;;;;4974131;28;20459;-63
2023/12/24 12:38:40;;;;;;;1.40;1.20;;;11.10;98.00;;;;;;4973750;28;20457;-62
2023/12/24 12:41:07;;;;;;;1.13;1.13;;;11.20;98.00;;;;;;4973715;28;20459;-62
2023/12/24 12:43:34;;;;;;;1.30;1.20;;;11.20;98.00;;;;;;4973441;28;20936;-63
2023/12/24 12:46:03;;;;;;;1.30;1.23;;;11.30;98.00;;;;;;4973523;28;20480;-63
2023/12/24 12:48:31;;;;;;;1.43;1.10;;;11.30;98.00;;;;;;4973687;28;20994;-62
2023/12/24 12:50:58;;;;;;;1.20;1.20;;;11.30;98.00;;;;;;4973275;28;20465;-62
2023/12/24 12:53:25;;;;;;;1.20;1.10;;;11.30;98.00;;;;;;4973726;28;20533;-63
2023/12/24 12:56:02;;;;;;;1.43;1.20;;;11.30;98.00;;;;;;4973389;28;20995;-63
2023/12/24 12:58:29;;;;;;;1.33;1.20;;;11.30;98.00;;;;;;4956517;28;20516;-62
2023/12/24 13:00:58;;;;;;;1.20;1.10;;;11.30;98.00;;;;;;4973476;28;20469;-63
2023/12/24 13:03:27;;;;;;;1.10;1.00;;;11.20;98.00;;;;;;4973031;28;20462;-63
2023/12/24 13:05:54;;;;;;;1.50;1.20;;;11.20;98.00;;;;;;4972795;28;20484;-63
2023/12/24 13:08:21;;;;;;;1.73;1.20;;;11.20;98.00;;;;;;4973054;28;20460;-63